No particular awareness of the weather is required.    There are no Weather-warnings


Meteo18 Weather Cam more information Meteo18 Weather Cam


Thunder radar more information blitzortung!


Rain radar more information rain snow radar


Visit our other weather sites:

Template documentation
and downloads

And another site



Weather Underground History page Text

Daily Summary for June 9, 2017 Units:  English    Metric   Both
« Previous Day
Next Day »
Daily Weekly Monthly Yearly Custom
  High: Low: Average:
Temperature: TemperatureC °F 15.1 °F 19 °F
Dew Point: DewpointC °F 12.6 °F 14.2 °F
Humidity: Humidity % 56 % 74 %
Wind Speed: WindSpeedKMH mph 0.0 mph 6 mph
Wind Gust: WindSpeedGustKMH mph - -
Wind:- - WSW
Pressure: PressurehPa in 1011.7 in -
Precipitation: 0.5 in    
Historical Graphs
 
 
Tabular Data for June 9, 2017
Time Temperature Dew Point Pressure Wind Wind Speed Wind Gust Humidity Rainfall Rate (Hourly)
TemperatureC °F DewpointC °F PressurehPa in Calm     Humidity % HourlyPrecipMM in
00:02 18.6 °F 14.1 °F 1011.7 in Calm   1.6 mph 75 % 0.0 in
00:12 18.6 °F 13.9 °F 1011.7 in Calm   1.6 mph 74 % 0.0 in
00:17 18.4 °F 14.1 °F 1011.7 in Calm   1.6 mph 76 % 0.0 in
00:22 18.1 °F 14.0 °F 1011.7 in Calm   1.6 mph 77 % 0.0 in
00:32 17.7 °F 14.0 °F 1011.7 in Calm   1.6 mph 79 % 0.0 in
00:42 17.6 °F 13.9 °F 1011.7 in WNW 1.6 mph 1.6 mph 79 % 0.0 in
00:47 17.7 °F 13.8 °F 1011.7 in Calm   1.6 mph 78 % 0.0 in
00:52 18.1 °F 13.8 °F 1011.7 in Calm   1.6 mph 76 % 0.0 in
00:57 18.3 °F 13.6 °F 1011.7 in Calm   1.6 mph 74 % 0.0 in
01:02 18.5 °F 13.6 °F 1011.7 in Calm   1.6 mph 73 % 0.0 in
01:07 18.6 °F 13.7 °F 1011.7 in Calm   1.6 mph 73 % 0.0 in
01:12 18.6 °F 13.9 °F 1011.7 in Calm   1.6 mph 74 % 0.0 in
01:17 18.3 °F 13.6 °F 1011.7 in WSW 1.6 mph 1.6 mph 74 % 0.0 in
01:22 18.3 °F 13.6 °F 1011.7 in Calm   1.6 mph 74 % 0.0 in
01:27 18.4 °F 13.7 °F 1011.7 in West 1.6 mph 3.2 mph 74 % 0.0 in
01:32 18.3 °F 13.6 °F 1011.7 in Calm   3.2 mph 74 % 0.0 in
01:37 18.4 °F 13.5 °F 1011.7 in Calm   3.2 mph 73 % 0.0 in
01:42 18.6 °F 13.5 °F 1011.7 in Calm   6.4 mph 72 % 0.0 in
01:47 18.6 °F 13.5 °F 1011.7 in Calm   6.4 mph 72 % 0.0 in
01:57 18.6 °F 13.7 °F 1011.7 in SW 1.6 mph 3.2 mph 73 % 0.0 in
02:02 18.6 °F 13.7 °F 1011.7 in ESE 1.6 mph 3.2 mph 73 % 0.0 in
02:07 18.4 °F 13.7 °F 1011.7 in Calm   3.2 mph 74 % 0.0 in
02:12 18.1 °F 13.8 °F 1011.7 in Calm   3.2 mph 76 % 0.0 in
02:17 17.8 °F 13.9 °F 1011.7 in Calm   3.2 mph 78 % 0.0 in
02:22 18.0 °F 13.7 °F 1012.1 in SW 6.4 mph 6.4 mph 76 % 0.0 in
02:27 19.0 °F 13.8 °F 1012.4 in SSW 9.7 mph 16.1 mph 72 % 0.0 in
02:32 19.5 °F 14.1 °F 1012.4 in WSW 14.5 mph 29.0 mph 71 % 0.0 in
02:37 19.7 °F 14.3 °F 1012.1 in SW 17.7 mph 29.0 mph 71 % 0.0 in
02:47 19.9 °F 14.5 °F 1012.1 in WSW 22.5 mph 32.2 mph 71 % 0.0 in
02:52 20.2 °F 14.6 °F 1012.1 in SW 19.3 mph 27.4 mph 70 % 0.0 in
02:57 20.3 °F 14.6 °F 1012.1 in SSW 14.5 mph 29.0 mph 70 % 0.0 in
03:02 20.4 °F 14.7 °F 1012.4 in West 16.1 mph 29.0 mph 70 % 0.0 in
03:12 20.4 °F 15.2 °F 1012.8 in WSW 11.3 mph 27.4 mph 72 % 0.0 in
03:22 19.4 °F 14.4 °F 1013.4 in NW 16.1 mph 45.1 mph 73 % 0.0 in
03:32 18.4 °F 14.3 °F 1013.1 in NNW 8.0 mph 56.3 mph 77 % 0.0 in
03:37 18.1 °F 14.2 °F 1013.1 in WNW 9.7 mph 35.4 mph 78 % 0.0 in
03:42 17.8 °F 14.1 °F 1013.1 in ENE 8.0 mph 35.4 mph 79 % 0.0 in
03:47 17.6 °F 14.3 °F 1013.4 in NNW 14.5 mph 30.6 mph 81 % 0.0 in
03:52 17.5 °F 14.2 °F 1013.8 in WSW 8.0 mph 30.6 mph 81 % 0.0 in
03:57 17.4 °F 14.3 °F 1013.8 in West 3.2 mph 25.7 mph 82 % 0.0 in
04:02 17.3 °F 14.4 °F 1014.1 in WNW 6.4 mph 22.5 mph 83 % 0.0 in
04:07 17.3 °F 14.4 °F 1013.8 in WNW 4.8 mph 20.9 mph 83 % 0.0 in
04:12 17.2 °F 14.3 °F 1013.8 in WNW 4.8 mph 19.3 mph 83 % 0.0 in
04:17 17.1 °F 14.2 °F 1013.8 in NW 6.4 mph 16.1 mph 83 % 0.0 in
04:22 17.1 °F 14.4 °F 1013.4 in NNW 3.2 mph 8.0 mph 84 % 0.0 in
04:27 17.0 °F 14.3 °F 1013.4 in NW 1.6 mph 8.0 mph 84 % 0.0 in
04:32 16.9 °F 14.2 °F 1013.4 in Calm   8.0 mph 84 % 0.0 in
04:37 16.9 °F 14.4 °F 1013.4 in North 1.6 mph 8.0 mph 85 % 0.0 in
04:42 16.8 °F 14.3 °F 1013.1 in NNE 1.6 mph 6.4 mph 85 % 0.0 in
04:47 16.7 °F 14.2 °F 1013.1 in NE 1.6 mph 4.8 mph 85 % 0.0 in
04:52 16.7 °F 14.2 °F 1013.1 in Calm   4.8 mph 85 % 0.0 in
04:57 16.7 °F 14.3 °F 1013.1 in Calm   4.8 mph 86 % 0.0 in
05:02 16.6 °F 14.2 °F 1013.4 in Calm   3.2 mph 86 % 0.0 in
05:07 16.5 °F 14.3 °F 1013.8 in Calm   1.6 mph 87 % 0.0 in
05:12 16.4 °F 14.2 °F 1013.8 in Calm   1.6 mph 87 % 0.0 in
05:22 16.2 °F 14.6 °F 1014.1 in SW 3.2 mph 8.0 mph 90 % 0.3 in
05:32 15.9 °F 14.4 °F 1014.1 in SW 3.2 mph 6.4 mph 91 % 0.5 in
05:37 15.8 °F 14.3 °F 1014.4 in SSW 3.2 mph 6.4 mph 91 % 0.5 in
05:42 15.8 °F 14.5 °F 1014.4 in Calm   6.4 mph 92 % 0.5 in
05:47 15.7 °F 14.4 °F 1014.4 in Calm   6.4 mph 92 % 0.5 in
05:52 15.7 °F 14.4 °F 1014.4 in Calm   4.8 mph 92 % 0.5 in
06:02 15.6 °F 14.5 °F 1014.4 in Calm   1.6 mph 93 % 0.5 in
06:07 15.6 °F 14.5 °F 1014.4 in Calm   1.6 mph 93 % 0.5 in
06:12 15.6 °F 14.5 °F 1014.4 in Calm     93 % 0.5 in
06:17 15.6 °F 14.5 °F 1014.4 in WNW 1.6 mph   93 % 0.5 in
06:22 15.5 °F 14.4 °F 1014.4 in Calm     93 % 0.5 in
06:27 15.4 °F 14.3 °F 1014.4 in Calm   1.6 mph 93 % 0.3 in
06:32 15.4 °F 14.3 °F 1014.4 in Calm   1.6 mph 93 % 0.3 in
06:37 15.4 °F 14.4 °F 1014.4 in WSW 3.2 mph 3.2 mph 94 % 0.3 in
06:42 15.5 °F 14.5 °F 1014.8 in WSW 1.6 mph 4.8 mph 94 % 0.3 in
06:47 15.5 °F 14.5 °F 1014.8 in WSW 3.2 mph 4.8 mph 94 % 0.3 in
06:52 15.4 °F 14.4 °F 1014.8 in WSW 1.6 mph 4.8 mph 94 % 0.0 in
06:57 15.4 °F 14.4 °F 1014.4 in Calm   6.4 mph 94 % 0.0 in
07:02 15.4 °F 14.4 °F 1014.8 in SSW 1.6 mph 6.4 mph 94 % 0.0 in
07:12 15.3 °F 14.3 °F 1014.8 in SSW 1.6 mph 4.8 mph 94 % 0.0 in
07:17 15.2 °F 14.2 °F 1014.8 in Calm   4.8 mph 94 % 0.0 in
07:22 15.2 °F 14.2 °F 1014.8 in Calm   4.8 mph 94 % 0.0 in
07:32 15.1 °F 14.3 °F 1014.8 in South 3.2 mph 4.8 mph 95 % 0.0 in
07:37 15.1 °F 14.3 °F 1015.1 in SW 1.6 mph 4.8 mph 95 % 0.0 in
07:42 15.2 °F 14.4 °F 1015.1 in SSW 1.6 mph 6.4 mph 95 % 0.0 in
07:47 15.2 °F 14.4 °F 1015.1 in SSW 3.2 mph 8.0 mph 95 % 0.0 in
07:52 15.3 °F 14.5 °F 1015.1 in SSE 4.8 mph 8.0 mph 95 % 0.0 in
07:57 15.4 °F 14.6 °F 1015.1 in Calm   8.0 mph 95 % 0.0 in
08:02 15.6 °F 14.8 °F 1015.1 in SSW 3.2 mph 8.0 mph 95 % 0.0 in
08:12 16.1 °F 15.3 °F 1015.5 in WSW 4.8 mph 8.0 mph 95 % 0.0 in
08:17 16.2 °F 15.4 °F 1015.5 in WSW 8.0 mph 11.3 mph 95 % 0.0 in
08:22 16.3 °F 15.5 °F 1015.5 in SW 3.2 mph 12.9 mph 95 % 0.0 in
08:27 16.4 °F 15.4 °F 1015.8 in SW 1.6 mph 12.9 mph 94 % 0.0 in
08:37 16.5 °F 15.5 °F 1015.8 in SSW 4.8 mph 11.3 mph 94 % 0.0 in
08:42 16.6 °F 15.6 °F 1015.8 in SW 9.7 mph 11.3 mph 94 % 0.0 in
08:47 16.7 °F 15.7 °F 1015.8 in SSW 3.2 mph 9.7 mph 94 % 0.0 in
08:57 16.9 °F 15.8 °F 1015.8 in SW 6.4 mph 12.9 mph 93 % 0.0 in
09:02 17.0 °F 15.7 °F 1015.8 in SSW 6.4 mph 12.9 mph 92 % 0.0 in
09:07 17.1 °F 15.8 °F 1016.1 in SW 4.8 mph 12.9 mph 92 % 0.0 in
09:12 17.2 °F 15.7 °F 1016.1 in SW 8.0 mph 12.9 mph 91 % 0.0 in
09:17 17.3 °F 15.8 °F 1016.1 in SW 9.7 mph 12.9 mph 91 % 0.0 in
09:27 17.4 °F 15.7 °F 1016.1 in SSW 11.3 mph 16.1 mph 90 % 0.0 in
09:32 17.4 °F 15.7 °F 1016.1 in WSW 6.4 mph 16.1 mph 90 % 0.0 in
09:37 17.4 °F 15.7 °F 1016.1 in SW 11.3 mph 19.3 mph 90 % 0.0 in
09:42 17.4 °F 15.7 °F 1016.1 in WSW 3.2 mph 19.3 mph 90 % 0.0 in
09:47 17.4 °F 15.6 °F 1016.5 in West 9.7 mph 16.1 mph 89 % 0.0 in
09:52 17.4 °F 15.7 °F 1016.5 in WSW 8.0 mph 14.5 mph 90 % 0.0 in
09:57 17.6 °F 15.8 °F 1016.5 in SW 6.4 mph 14.5 mph 89 % 0.0 in
10:02 17.8 °F 16.0 °F 1016.5 in SSW 8.0 mph 14.5 mph 89 % 0.0 in
10:07 18.1 °F 16.1 °F 1016.5 in SW 3.2 mph 19.3 mph 88 % 0.0 in
10:12 18.4 °F 15.8 °F 1016.5 in SW 9.7 mph 19.3 mph 85 % 0.0 in
10:17 18.4 °F 15.8 °F 1016.5 in SW 12.9 mph 19.3 mph 85 % 0.0 in
10:27 18.5 °F 15.7 °F 1016.8 in West 3.2 mph 19.3 mph 84 % 0.0 in
10:32 18.5 °F 15.7 °F 1016.8 in SW 1.6 mph 19.3 mph 84 % 0.0 in
10:37 18.5 °F 15.7 °F 1016.8 in SW 8.0 mph 16.1 mph 84 % 0.0 in
10:42 18.5 °F 15.9 °F 1016.8 in WSW 3.2 mph 16.1 mph 85 % 0.0 in
10:47 18.7 °F 16.3 °F 1016.8 in WSW 4.8 mph 12.9 mph 86 % 0.0 in
10:52 18.7 °F 15.9 °F 1016.8 in SSW 3.2 mph 17.7 mph 84 % 0.0 in
10:57 18.6 °F 15.7 °F 1016.8 in West 6.4 mph 17.7 mph 83 % 0.0 in
11:02 18.7 °F 15.8 °F 1017.2 in SW 8.0 mph 17.7 mph 83 % 0.0 in
11:12 19.1 °F 16.0 °F 1016.8 in SW 11.3 mph 19.3 mph 82 % 0.0 in
11:17 19.3 °F 15.8 °F 1016.8 in SW 11.3 mph 22.5 mph 80 % 0.0 in
11:22 19.2 °F 15.5 °F 1016.8 in SSW 6.4 mph 22.5 mph 79 % 0.0 in
11:27 19.3 °F 16.1 °F 1016.8 in SW 17.7 mph 22.5 mph 82 % 0.0 in
11:32 19.4 °F 16.2 °F 1017.2 in WSW 4.8 mph 22.5 mph 82 % 0.0 in
11:37 19.3 °F 16.0 °F 1017.2 in SW 14.5 mph 19.3 mph 81 % 0.0 in
11:42 19.3 °F 16.0 °F 1017.2 in SSW 8.0 mph 27.4 mph 81 % 0.0 in
11:47 19.4 °F 15.9 °F 1017.2 in WSW 8.0 mph 27.4 mph 80 % 0.0 in
11:57 19.6 °F 15.9 °F 1017.2 in SSW 6.4 mph 25.7 mph 79 % 0.0 in
12:02 19.8 °F 15.7 °F 1017.2 in SW 11.3 mph 25.7 mph 77 % 0.0 in
12:12 19.9 °F 15.3 °F 1017.2 in SW 17.7 mph 24.1 mph 75 % 0.0 in
12:17 20.1 °F 15.9 °F 1017.2 in WSW 24.1 mph 24.1 mph 77 % 0.0 in
12:22 20.4 °F 15.6 °F 1017.2 in SW 20.9 mph 27.4 mph 74 % 0.0 in
12:27 20.2 °F 15.6 °F 1017.2 in West 11.3 mph 27.4 mph 75 % 0.0 in
12:32 20.2 °F 15.8 °F 1017.2 in SW 11.3 mph 27.4 mph 76 % 0.0 in
12:37 20.3 °F 16.3 °F 1017.2 in WNW 6.4 mph 22.5 mph 78 % 0.0 in
12:42 20.2 °F 15.8 °F 1017.2 in SW 6.4 mph 19.3 mph 76 % 0.0 in
12:47 20.0 °F 15.6 °F 1017.2 in West 9.7 mph 19.3 mph 76 % 0.0 in
12:52 19.8 °F 15.0 °F 1017.2 in West 6.4 mph 22.5 mph 74 % 0.0 in
12:57 19.8 °F 15.2 °F 1017.2 in West 4.8 mph 22.5 mph 75 % 0.0 in
13:02 20.3 °F 15.3 °F 1017.5 in WSW 17.7 mph 22.5 mph 73 % 0.0 in
13:07 20.1 °F 15.1 °F 1017.5 in SW 6.4 mph 22.5 mph 73 % 0.0 in
13:12 20.4 °F 15.2 °F 1017.5 in West 16.1 mph 22.5 mph 72 % 0.0 in
13:17 20.3 °F 15.3 °F 1017.5 in WSW 14.5 mph 22.5 mph 73 % 0.0 in
13:22 20.3 °F 15.5 °F 1017.5 in SW 14.5 mph 24.1 mph 74 % 0.0 in
13:27 20.3 °F 15.3 °F 1017.5 in WSW 14.5 mph 24.1 mph 73 % 0.0 in
13:32 20.3 °F 15.3 °F 1017.5 in WSW 16.1 mph 24.1 mph 73 % 0.0 in
13:37 20.3 °F 15.1 °F 1017.5 in WSW 8.0 mph 22.5 mph 72 % 0.0 in
13:42 20.5 °F 15.1 °F 1017.5 in WSW 9.7 mph 22.5 mph 71 % 0.0 in
13:47 20.8 °F 14.7 °F 1017.5 in SW 12.9 mph 22.5 mph 68 % 0.0 in
13:52 21.1 °F 15.0 °F 1017.5 in WSW 12.9 mph 22.5 mph 68 % 0.0 in
13:57 20.8 °F 14.9 °F 1017.2 in WSW 4.8 mph 29.0 mph 69 % 0.0 in
14:02 20.9 °F 15.2 °F 1017.5 in WSW 14.5 mph 29.0 mph 70 % 0.0 in
14:12 21.1 °F 15.0 °F 1017.5 in West 11.3 mph 24.1 mph 68 % 0.0 in
14:17 20.8 °F 14.7 °F 1017.5 in WSW 11.3 mph 24.1 mph 68 % 0.0 in
14:22 21.1 °F 15.4 °F 1017.5 in West 11.3 mph 24.1 mph 70 % 0.0 in
14:27 21.3 °F 14.7 °F 1017.5 in West 8.0 mph 20.9 mph 66 % 0.0 in
14:32 21.1 °F 14.5 °F 1017.5 in West 14.5 mph 22.5 mph 66 % 0.0 in
14:37 21.1 °F 14.5 °F 1017.5 in WNW 16.1 mph 22.5 mph 66 % 0.0 in
14:42 21.3 °F 14.5 °F 1017.5 in SW 22.5 mph 22.5 mph 65 % 0.0 in
14:52 20.9 °F 13.8 °F 1017.5 in WSW 11.3 mph 25.7 mph 64 % 0.0 in
14:57 21.2 °F 14.4 °F 1017.5 in WNW 12.9 mph 25.7 mph 65 % 0.0 in
15:02 21.4 °F 14.3 °F 1017.5 in West 16.1 mph 22.5 mph 64 % 0.0 in
15:07 21.5 °F 14.2 °F 1017.2 in West 9.7 mph 20.9 mph 63 % 0.0 in
15:12 22.0 °F 13.9 °F 1017.5 in West 17.7 mph 22.5 mph 60 % 0.0 in
15:17 21.9 °F 13.5 °F 1017.5 in WSW 20.9 mph 25.7 mph 59 % 0.0 in
15:22 22.0 °F 13.4 °F 1017.5 in WNW 12.9 mph 25.7 mph 58 % 0.0 in
15:27 21.8 °F 13.7 °F 1017.5 in West 12.9 mph 25.7 mph 60 % 0.0 in
15:32 21.8 °F 13.7 °F 1017.5 in SW 12.9 mph 22.5 mph 60 % 0.0 in
15:37 21.8 °F 13.2 °F 1017.5 in SW 16.1 mph 27.4 mph 58 % 0.0 in
15:42 21.7 °F 13.1 °F 1017.8 in WSW 11.3 mph 27.4 mph 58 % 0.0 in
15:47 21.7 °F 13.3 °F 1017.8 in SW 12.9 mph 27.4 mph 59 % 0.0 in
15:52 21.9 °F 13.5 °F 1017.8 in WSW 12.9 mph 25.7 mph 59 % 0.0 in
15:57 21.7 °F 13.3 °F 1017.8 in WSW 16.1 mph 25.7 mph 59 % 0.0 in
16:02 21.7 °F 13.3 °F 1017.8 in South 8.0 mph 25.7 mph 59 % 0.0 in
16:07 22.1 °F 14.2 °F 1017.8 in West 12.9 mph 20.9 mph 61 % 0.0 in
16:12 21.9 °F 13.5 °F 1017.8 in WNW 8.0 mph 25.7 mph 59 % 0.0 in
16:17 21.8 °F 13.4 °F 1017.8 in West 11.3 mph 25.7 mph 59 % 0.0 in
16:22 21.7 °F 13.8 °F 1017.8 in WSW 16.1 mph 25.7 mph 61 % 0.0 in
16:27 21.6 °F 14.0 °F 1017.8 in WNW 6.4 mph 25.7 mph 62 % 0.0 in
16:32 21.8 °F 13.4 °F 1017.8 in WNW 14.5 mph 22.5 mph 59 % 0.0 in
16:37 21.7 °F 13.6 °F 1017.8 in West 9.7 mph 20.9 mph 60 % 0.0 in
16:42 21.7 °F 13.8 °F 1017.8 in West 6.4 mph 17.7 mph 61 % 0.0 in
16:47 21.7 °F 13.6 °F 1017.8 in WNW 12.9 mph 17.7 mph 60 % 0.0 in
16:52 21.7 °F 13.6 °F 1017.8 in SW 16.1 mph 17.7 mph 60 % 0.0 in
16:57 21.4 °F 13.3 °F 1017.8 in West 12.9 mph 20.9 mph 60 % 0.0 in
17:02 21.4 °F 13.6 °F 1017.8 in West 8.0 mph 20.9 mph 61 % 0.0 in
17:07 21.5 °F 13.9 °F 1017.8 in WSW 4.8 mph 20.9 mph 62 % 0.0 in
17:12 21.6 °F 14.0 °F 1017.8 in West 6.4 mph 19.3 mph 62 % 0.0 in
17:22 21.6 °F 13.8 °F 1018.2 in West 11.3 mph 17.7 mph 61 % 0.0 in
17:27 21.6 °F 13.5 °F 1018.2 in West 8.0 mph 22.5 mph 60 % 0.0 in
17:32 21.9 °F 13.3 °F 1018.2 in West 9.7 mph 22.5 mph 58 % 0.0 in
17:37 22.3 °F 13.9 °F 1018.2 in SW 6.4 mph 22.5 mph 59 % 0.0 in
17:42 22.1 °F 13.7 °F 1018.2 in West 12.9 mph 22.5 mph 59 % 0.0 in
17:47 22.2 °F 13.8 °F 1017.8 in WSW 4.8 mph 22.5 mph 59 % 0.0 in
17:52 22.3 °F 13.6 °F 1017.8 in West 6.4 mph 22.5 mph 58 % 0.0 in
17:57 22.2 °F 13.8 °F 1018.2 in WNW 6.4 mph 16.1 mph 59 % 0.0 in
18:02 22.5 °F 14.1 °F 1017.8 in WSW 8.0 mph 16.1 mph 59 % 0.0 in
18:07 22.6 °F 13.9 °F 1017.8 in SW 8.0 mph 16.1 mph 58 % 0.0 in
18:12 22.3 °F 13.4 °F 1017.8 in West 12.9 mph 17.7 mph 57 % 0.0 in
18:17 21.9 °F 13.8 °F 1017.8 in WSW 8.0 mph 17.7 mph 60 % 0.0 in
18:22 21.8 °F 13.7 °F 1017.8 in WSW 8.0 mph 17.7 mph 60 % 0.0 in
18:27 22.1 °F 14.0 °F 1017.8 in West 4.8 mph 14.5 mph 60 % 0.0 in
18:32 21.8 °F 13.7 °F 1017.8 in WSW 1.6 mph 14.5 mph 60 % 0.0 in
18:37 21.7 °F 14.1 °F 1017.8 in WNW 6.4 mph 12.9 mph 62 % 0.0 in
18:42 22.1 °F 14.2 °F 1017.8 in WNW 9.7 mph 12.9 mph 61 % 0.0 in
18:47 22.1 °F 12.9 °F 1017.8 in WSW 12.9 mph 14.5 mph 56 % 0.0 in
18:52 22.1 °F 13.4 °F 1017.8 in SW 8.0 mph 19.3 mph 58 % 0.0 in
18:57 22.2 °F 13.8 °F 1017.8 in WNW 3.2 mph 19.3 mph 59 % 0.0 in
19:02 22.2 °F 14.1 °F 1018.2 in SW 4.8 mph 16.1 mph 60 % 0.0 in
19:12 21.8 °F 13.7 °F 1018.2 in WNW 4.8 mph 14.5 mph 60 % 0.0 in
19:17 21.7 °F 13.3 °F 1018.2 in West 4.8 mph 12.9 mph 59 % 0.0 in
19:22 21.8 °F 13.2 °F 1018.2 in WNW 8.0 mph 12.9 mph 58 % 0.0 in
19:27 21.8 °F 13.2 °F 1018.2 in West 6.4 mph 12.9 mph 58 % 0.0 in
19:32 21.8 °F 13.2 °F 1018.2 in SW 3.2 mph 12.9 mph 58 % 0.0 in
19:42 21.7 °F 13.1 °F 1018.2 in NW 6.4 mph 11.3 mph 58 % 0.0 in
19:52 21.7 °F 13.8 °F 1018.5 in West 3.2 mph 12.9 mph 61 % 0.0 in
20:02 21.8 °F 13.2 °F 1018.5 in NW 4.8 mph 12.9 mph 58 % 0.0 in
20:07 21.6 °F 13.0 °F 1018.5 in West 1.6 mph 11.3 mph 58 % 0.0 in
20:12 21.6 °F 13.5 °F 1018.5 in WNW 1.6 mph 11.3 mph 60 % 0.0 in
20:17 21.4 °F 13.3 °F 1018.5 in West 1.6 mph 11.3 mph 60 % 0.0 in
20:22 21.5 °F 13.4 °F 1018.5 in Calm   6.4 mph 60 % 0.0 in
20:27 21.7 °F 13.3 °F 1018.5 in WNW 1.6 mph 4.8 mph 59 % 0.0 in
20:32 21.9 °F 13.3 °F 1018.5 in Calm   4.8 mph 58 % 0.0 in
20:37 22.0 °F 13.6 °F 1018.5 in West 1.6 mph 4.8 mph 59 % 0.0 in
20:42 21.5 °F 13.4 °F 1018.8 in Calm   4.8 mph 60 % 0.0 in
20:47 21.1 °F 13.5 °F 1018.8 in Calm   3.2 mph 62 % 0.0 in
20:52 20.8 °F 13.3 °F 1018.8 in Calm   3.2 mph 62 % 0.0 in
21:02 20.4 °F 13.1 °F 1018.8 in Calm   3.2 mph 63 % 0.0 in
21:07 20.3 °F 13.0 °F 1018.8 in NW 1.6 mph 4.8 mph 63 % 0.0 in
21:12 20.1 °F 13.1 °F 1018.8 in NW 1.6 mph 4.8 mph 64 % 0.0 in
21:17 20.0 °F 13.2 °F 1018.8 in NW 1.6 mph 4.8 mph 65 % 0.0 in
21:22 19.8 °F 13.0 °F 1019.2 in Calm   3.2 mph 65 % 0.0 in
21:27 19.7 °F 13.4 °F 1019.2 in Calm   1.6 mph 67 % 0.0 in
21:32 19.5 °F 13.4 °F 1019.2 in NW 1.6 mph 1.6 mph 68 % 0.0 in
21:37 19.4 °F 13.3 °F 1019.2 in WNW 1.6 mph 3.2 mph 68 % 0.0 in
21:42 19.3 °F 13.2 °F 1019.2 in NNW 3.2 mph 3.2 mph 68 % 0.0 in
21:47 19.2 °F 13.1 °F 1019.5 in Calm   3.2 mph 68 % 0.0 in
21:52 19.1 °F 13.3 °F 1019.5 in Calm   3.2 mph 69 % 0.0 in
21:57 18.9 °F 13.1 °F 1019.5 in NW 1.6 mph 3.2 mph 69 % 0.0 in
22:02 18.9 °F 13.1 °F 1019.5 in Calm   3.2 mph 69 % 0.0 in
22:07 18.8 °F 13.0 °F 1019.5 in Calm   3.2 mph 69 % 0.0 in
22:12 18.7 °F 12.7 °F 1019.5 in WNW 1.6 mph 3.2 mph 68 % 0.0 in
22:17 18.7 °F 12.7 °F 1019.5 in Calm   1.6 mph 68 % 0.0 in
22:22 18.6 °F 12.8 °F 1019.9 in Calm   1.6 mph 69 % 0.0 in
22:32 18.4 °F 12.8 °F 1019.9 in Calm   1.6 mph 70 % 0.0 in
22:42 18.1 °F 12.8 °F 1019.9 in Calm     71 % 0.0 in
22:47 17.9 °F 12.8 °F 1019.5 in Calm     72 % 0.0 in
22:52 17.8 °F 12.9 °F 1019.5 in Calm     73 % 0.0 in
22:57 17.7 °F 13.2 °F 1019.5 in Calm     75 % 0.0 in
23:02 17.4 °F 13.1 °F 1019.9 in Calm     76 % 0.0 in
23:07 17.2 °F 13.1 °F 1019.5 in Calm     77 % 0.0 in
23:12 17.0 °F 12.9 °F 1019.5 in Calm     77 % 0.0 in
23:17 16.9 °F 12.8 °F 1019.5 in Calm     77 % 0.0 in
23:22 16.9 °F 13.0 °F 1019.5 in Calm     78 % 0.0 in
23:27 16.7 °F 12.6 °F 1019.5 in Calm     77 % 0.0 in
23:32 16.5 °F 13.0 °F 1019.5 in Calm     80 % 0.0 in
23:37 16.3 °F 13.0 °F 1019.9 in Calm     81 % 0.0 in
23:47 16.2 °F 13.3 °F 1019.9 in Calm     83 % 0.0 in
23:52 16.2 °F 13.1 °F 1019.9 in Calm     82 % 0.0 in
23:57 16.3 °F 13.0 °F 1019.9 in Calm     81 % 0.0 in
Meteo18
Compliments of Weather Underground - 4 mb

Script developed by  Jim McMurry - jmcmurry@mwt.net Adapted for the template by  Wim van der Kuil - Leuven-Template.eu

You find our weather info also at:

European Weather Network

Weather Underground

Equipment we use:

Weather-station
Davis Vue

Weather-program
Meteobridge

Weather-server
Raspberry PI 2 B+

Provider
1 and 1

Davis Vue

Meteobridge

Raspberry PI 2 B+

1 and 1